createdAt,value
2023-03-17T00:01:54.812Z,0.40
2023-03-17T00:04:24.282Z,0.33
2023-03-17T00:06:53.028Z,0.40
2023-03-17T00:09:23.575Z,0.37
2023-03-17T00:11:52.085Z,0.40
2023-03-17T00:14:20.816Z,0.40
2023-03-17T00:16:53.704Z,0.30
2023-03-17T00:19:29.876Z,0.50
2023-03-17T00:21:59.296Z,0.30
2023-03-17T00:24:29.665Z,0.40
2023-03-17T00:26:58.138Z,0.40
2023-03-17T00:29:27.112Z,0.30
2023-03-17T00:31:56.426Z,0.40
2023-03-17T00:34:24.867Z,0.40
2023-03-17T00:36:53.588Z,0.40
2023-03-17T00:39:22.007Z,0.40
2023-03-17T00:41:51.777Z,0.30
2023-03-17T00:44:20.376Z,0.30
2023-03-17T00:46:49.002Z,0.50
2023-03-17T00:49:19.386Z,0.50
2023-03-17T00:51:48.064Z,0.40
2023-03-17T00:54:20.801Z,0.30
2023-03-17T00:56:52.111Z,0.50
2023-03-17T00:59:25.413Z,0.40
2023-03-17T01:01:54.097Z,0.50
2023-03-17T01:04:22.776Z,0.40
2023-03-17T01:06:52.263Z,0.40
2023-03-17T01:09:21.988Z,0.40
2023-03-17T01:11:51.694Z,0.30
2023-03-17T01:14:20.291Z,0.40
2023-03-17T01:16:48.817Z,0.50
2023-03-17T01:19:18.087Z,0.70
2023-03-17T01:21:48.095Z,0.50
2023-03-17T01:24:16.484Z,0.40
2023-03-17T01:26:47.879Z,0.40
2023-03-17T01:29:17.640Z,0.40
2023-03-17T01:31:46.313Z,0.40
2023-03-17T01:34:14.990Z,0.57
2023-03-17T01:36:53.585Z,0.40
2023-03-17T01:39:22.013Z,0.50
2023-03-17T01:41:52.099Z,0.40
2023-03-17T01:44:21.789Z,0.47
2023-03-17T01:46:56.578Z,0.40
2023-03-17T01:49:29.552Z,0.30
2023-03-17T01:52:06.749Z,0.30
2023-03-17T01:54:40.097Z,0.40
2023-03-17T01:57:12.933Z,0.37
2023-03-17T01:59:46.234Z,0.40
2023-03-17T02:02:19.771Z,0.40
2023-03-17T02:04:48.248Z,0.30
2023-03-17T02:07:16.601Z,0.33
2023-03-17T02:09:44.825Z,0.40
2023-03-17T02:12:13.924Z,0.40
2023-03-17T02:14:44.152Z,0.30
2023-03-17T02:17:12.932Z,0.40
2023-03-17T02:19:42.073Z,0.30
2023-03-17T02:22:12.731Z,0.40
2023-03-17T02:24:43.641Z,0.30
2023-03-17T02:27:15.385Z,0.40
2023-03-17T02:29:46.377Z,0.40
2023-03-17T02:32:17.783Z,0.40
2023-03-17T02:34:47.100Z,0.40
2023-03-17T02:37:18.412Z,0.40
2023-03-17T02:39:46.942Z,0.40
2023-03-17T02:42:15.499Z,0.40
2023-03-17T02:44:43.883Z,0.40
2023-03-17T02:47:12.350Z,0.50
2023-03-17T02:49:42.485Z,0.40
2023-03-17T02:52:10.986Z,0.40
2023-03-17T02:54:40.837Z,0.40
2023-03-17T02:57:09.527Z,0.40
2023-03-17T02:59:38.119Z,0.40
2023-03-17T03:02:06.587Z,0.50
2023-03-17T03:04:34.872Z,0.30
2023-03-17T03:07:04.137Z,0.33
2023-03-17T03:09:32.465Z,0.30
2023-03-17T03:12:02.086Z,0.37
2023-03-17T03:14:30.666Z,0.40
2023-03-17T03:16:59.639Z,0.40
2023-03-17T03:19:28.391Z,0.30
2023-03-17T03:21:56.744Z,0.40
2023-03-17T03:24:25.230Z,0.43
2023-03-17T03:26:53.748Z,0.40
2023-03-17T03:29:23.380Z,0.40
2023-03-17T03:31:51.769Z,0.30
2023-03-17T03:34:20.668Z,0.60
2023-03-17T03:36:48.911Z,0.40
2023-03-17T03:39:17.224Z,0.33
2023-03-17T03:41:45.678Z,0.37
2023-03-17T03:44:14.019Z,0.67
2023-03-17T03:46:43.686Z,0.60
2023-03-17T03:49:11.954Z,0.40
2023-03-17T03:51:40.642Z,0.50
2023-03-17T03:54:09.034Z,0.40
2023-03-17T03:56:37.255Z,0.47
2023-03-17T03:59:06.262Z,0.50
2023-03-17T04:01:34.675Z,0.30
2023-03-17T04:04:04.399Z,0.50
2023-03-17T04:06:32.672Z,0.40
2023-03-17T04:09:00.889Z,0.40
2023-03-17T04:11:29.286Z,0.30
2023-03-17T04:13:58.758Z,0.40
2023-03-17T04:16:27.377Z,0.40
2023-03-17T04:18:55.761Z,0.40
2023-03-17T04:21:25.800Z,0.30
2023-03-17T04:23:54.082Z,0.43
2023-03-17T04:26:23.182Z,0.50
2023-03-17T04:28:51.603Z,0.40
2023-03-17T04:31:19.886Z,0.30
2023-03-17T04:33:48.130Z,0.40
2023-03-17T04:36:20.560Z,0.43
2023-03-17T04:38:50.993Z,0.40
2023-03-17T04:41:19.482Z,0.30
2023-03-17T04:43:47.956Z,0.30
2023-03-17T04:46:16.522Z,0.60
2023-03-17T04:48:45.161Z,0.30
2023-03-17T04:51:13.575Z,0.40
2023-03-17T04:53:41.978Z,0.50
2023-03-17T04:56:11.733Z,0.40
2023-03-17T04:58:40.428Z,0.40
2023-03-17T05:01:09.892Z,0.50
2023-03-17T05:03:38.234Z,0.50
2023-03-17T05:06:07.339Z,0.40
2023-03-17T05:08:36.001Z,0.40
2023-03-17T05:11:04.849Z,0.50
2023-03-17T05:13:34.462Z,0.60
2023-03-17T05:16:02.721Z,0.50
2023-03-17T05:18:31.093Z,0.40
2023-03-17T05:20:59.683Z,0.40
2023-03-17T05:23:28.261Z,0.60
2023-03-17T05:25:56.560Z,0.40
2023-03-17T05:28:25.493Z,0.60
2023-03-17T05:30:55.705Z,0.50
2023-03-17T05:33:24.252Z,0.50
2023-03-17T05:35:52.562Z,0.60
2023-03-17T05:38:21.092Z,0.60
2023-03-17T05:40:52.699Z,0.40
2023-03-17T05:43:21.024Z,0.50
2023-03-17T05:45:50.708Z,0.40
2023-03-17T05:48:20.400Z,0.57
2023-03-17T05:50:48.736Z,0.30
2023-03-17T05:53:17.541Z,0.40
2023-03-17T05:55:46.150Z,0.40
2023-03-17T05:58:15.739Z,0.40
2023-03-17T06:00:45.326Z,0.50
2023-03-17T06:03:13.779Z,0.47
2023-03-17T06:05:43.717Z,0.67
2023-03-17T06:08:15.015Z,0.40
2023-03-17T06:10:43.973Z,0.40
2023-03-17T06:13:12.923Z,0.50
2023-03-17T06:15:42.238Z,0.50
2023-03-17T06:18:10.817Z,0.40
2023-03-17T06:20:39.155Z,0.50
2023-03-17T06:23:08.960Z,0.40
2023-03-17T06:25:37.332Z,0.40
2023-03-17T06:28:06.527Z,0.50
2023-03-17T06:30:36.510Z,0.30
2023-03-17T06:33:05.950Z,0.50
2023-03-17T06:35:35.123Z,0.27
2023-03-17T06:38:03.765Z,0.40
2023-03-17T06:40:34.195Z,0.40
2023-03-17T06:43:03.611Z,0.40
2023-03-17T06:45:32.958Z,0.40
2023-03-17T06:48:01.716Z,0.40
2023-03-17T06:50:30.285Z,0.33
2023-03-17T06:52:58.713Z,0.30
2023-03-17T06:55:27.493Z,0.40
2023-03-17T06:57:58.845Z,0.40
2023-03-17T07:00:28.785Z,0.40
2023-03-17T07:02:58.780Z,0.40
2023-03-17T07:05:30.324Z,0.40
2023-03-17T07:08:00.453Z,0.40
2023-03-17T07:10:29.375Z,0.40
2023-03-17T07:13:03.234Z,0.50
2023-03-17T07:15:35.096Z,0.43
2023-03-17T07:18:04.088Z,0.30
2023-03-17T07:20:32.521Z,0.30
2023-03-17T07:23:01.539Z,0.50
2023-03-17T07:25:30.279Z,0.30
2023-03-17T07:28:00.220Z,0.40
2023-03-17T07:30:28.833Z,0.40
2023-03-17T07:32:58.334Z,0.30
2023-03-17T07:35:27.865Z,0.40
2023-03-17T07:37:57.418Z,0.30
2023-03-17T07:40:26.182Z,0.30
2023-03-17T07:42:55.396Z,0.50
2023-03-17T07:45:25.360Z,0.30
2023-03-17T07:47:54.000Z,0.40
2023-03-17T07:50:22.408Z,0.33
2023-03-17T07:52:50.858Z,0.30
2023-03-17T07:55:19.162Z,0.40
2023-03-17T07:57:47.671Z,0.40
2023-03-17T08:00:17.580Z,0.30
2023-03-17T08:02:59.602Z,0.40
2023-03-17T08:05:35.527Z,0.30
2023-03-17T08:08:05.383Z,0.40
2023-03-17T08:10:34.368Z,0.40
2023-03-17T08:13:03.007Z,0.30
2023-03-17T08:15:31.839Z,0.30
2023-03-17T08:18:02.584Z,0.20
2023-03-17T08:20:31.321Z,0.40
2023-03-17T08:22:59.733Z,0.30
2023-03-17T08:25:28.551Z,0.30
2023-03-17T08:27:57.035Z,0.30
2023-03-17T08:30:25.354Z,0.30
2023-03-17T08:32:54.855Z,0.30
2023-03-17T08:35:24.989Z,0.40
2023-03-17T08:37:58.953Z,0.30
2023-03-17T08:40:27.275Z,0.40
2023-03-17T08:42:55.779Z,0.30
2023-03-17T08:45:24.130Z,0.20
2023-03-17T08:47:52.570Z,0.30
2023-03-17T08:50:26.318Z,0.30
2023-03-17T08:52:55.145Z,0.30
2023-03-17T08:55:23.690Z,0.30
2023-03-17T08:57:52.991Z,0.30
2023-03-17T09:00:21.995Z,0.30
2023-03-17T09:02:50.504Z,0.30
2023-03-17T09:05:19.621Z,0.30
2023-03-17T09:07:50.309Z,0.20
2023-03-17T09:10:22.630Z,0.30
2023-03-17T09:12:51.660Z,0.30
2023-03-17T09:15:21.297Z,0.20
2023-03-17T09:17:49.552Z,0.30
2023-03-17T09:20:18.653Z,0.23
2023-03-17T09:22:49.133Z,0.20
2023-03-17T09:25:18.193Z,0.23
2023-03-17T09:27:46.511Z,0.30
2023-03-17T09:30:16.463Z,0.23
2023-03-17T09:32:45.610Z,0.30
2023-03-17T09:35:14.431Z,0.20
2023-03-17T09:37:42.775Z,0.30
2023-03-17T09:40:19.072Z,0.20
2023-03-17T09:42:58.810Z,0.20
2023-03-17T09:45:38.888Z,0.20
2023-03-17T09:48:30.552Z,0.27
2023-03-17T09:51:02.930Z,0.30
2023-03-17T09:53:36.056Z,0.30
2023-03-17T09:56:12.519Z,0.20
2023-03-17T09:58:43.445Z,0.20
2023-03-17T10:01:12.876Z,0.20
2023-03-17T10:03:41.450Z,0.20
2023-03-17T10:06:39.290Z,0.30
2023-03-17T10:09:18.166Z,0.20
2023-03-17T10:11:49.982Z,0.20
2023-03-17T10:14:51.209Z,0.20
2023-03-17T10:17:22.038Z,0.20
2023-03-17T10:19:58.018Z,0.20
2023-03-17T10:22:31.603Z,0.20
2023-03-17T10:25:07.600Z,0.20
2023-03-17T10:27:39.329Z,0.20
2023-03-17T10:30:16.128Z,0.20
2023-03-17T10:32:45.822Z,0.20
2023-03-17T10:35:16.572Z,0.20
2023-03-17T10:37:47.310Z,0.20
2023-03-17T10:40:24.544Z,0.20
2023-03-17T10:43:01.680Z,0.20
2023-03-17T10:45:31.687Z,0.20
2023-03-17T10:48:01.385Z,0.20
2023-03-17T10:50:32.765Z,0.20
2023-03-17T10:53:09.581Z,0.20
2023-03-17T10:55:44.764Z,0.20
2023-03-17T10:58:18.236Z,0.20
2023-03-17T11:00:57.784Z,0.20
2023-03-17T11:03:29.984Z,0.20
2023-03-17T11:06:02.545Z,0.20
2023-03-17T11:08:33.349Z,0.20
2023-03-17T11:11:02.127Z,0.20
2023-03-17T11:13:33.037Z,0.20
2023-03-17T11:16:11.675Z,0.20
2023-03-17T11:18:41.896Z,0.20
2023-03-17T11:21:13.258Z,0.20
2023-03-17T11:23:53.482Z,0.20
2023-03-17T11:26:43.740Z,0.20
2023-03-17T11:29:27.333Z,0.20
2023-03-17T11:32:10.916Z,0.20
2023-03-17T11:34:53.234Z,0.20
2023-03-17T11:37:33.514Z,0.20
2023-03-17T11:40:08.912Z,0.20
2023-03-17T11:42:43.637Z,0.20
2023-03-17T11:45:24.048Z,0.13
2023-03-17T11:48:14.927Z,0.20
2023-03-17T11:50:51.713Z,0.20
2023-03-17T11:53:40.793Z,0.20
2023-03-17T11:56:15.685Z,0.20
2023-03-17T11:58:46.434Z,0.20
2023-03-17T12:01:21.591Z,0.20
2023-03-17T12:03:54.385Z,0.10
2023-03-17T12:06:29.359Z,0.20
2023-03-17T12:09:00.832Z,0.20
2023-03-17T12:11:32.019Z,0.20
2023-03-17T12:14:05.981Z,0.20
2023-03-17T12:16:40.215Z,0.20
2023-03-17T12:19:15.080Z,0.20
2023-03-17T12:21:50.325Z,0.20
2023-03-17T12:24:21.977Z,0.20
2023-03-17T12:26:57.687Z,0.20
2023-03-17T12:29:38.778Z,0.20
2023-03-17T12:32:13.288Z,0.20
2023-03-17T12:34:46.505Z,0.20
2023-03-17T12:37:17.313Z,0.20
2023-03-17T12:39:52.953Z,0.20
2023-03-17T12:42:32.608Z,0.17
2023-03-17T12:45:33.358Z,0.20
2023-03-17T12:48:31.191Z,0.20
2023-03-17T12:51:38.634Z,0.20
2023-03-17T12:54:15.358Z,0.20
2023-03-17T12:56:47.569Z,0.20
2023-03-17T12:59:19.592Z,0.20
2023-03-17T13:01:57.472Z,0.20
2023-03-17T13:04:30.009Z,0.10
2023-03-17T13:07:07.526Z,0.10
2023-03-17T13:09:45.879Z,0.20
2023-03-17T13:12:38.353Z,0.10
2023-03-17T13:15:38.289Z,0.10
2023-03-17T13:18:29.017Z,0.10
2023-03-17T13:21:14.843Z,0.20
2023-03-17T13:23:45.847Z,0.10
2023-03-17T13:26:16.355Z,0.10
2023-03-17T13:28:48.720Z,0.20
2023-03-17T13:31:34.944Z,0.10
2023-03-17T13:34:16.418Z,0.10
2023-03-17T13:36:56.028Z,0.10
2023-03-17T13:39:54.801Z,0.10
2023-03-17T13:43:03.124Z,0.10
2023-03-17T13:45:39.724Z,0.10
2023-03-17T13:48:32.188Z,0.20
2023-03-17T13:51:04.425Z,0.13
2023-03-17T13:53:39.381Z,0.20
2023-03-17T13:56:17.598Z,0.10
2023-03-17T13:58:54.791Z,0.10
2023-03-17T14:01:24.419Z,0.10
2023-03-17T14:03:54.151Z,0.10
2023-03-17T14:06:28.179Z,0.10
2023-03-17T14:09:02.374Z,0.20
2023-03-17T14:11:35.986Z,0.20
2023-03-17T14:14:45.517Z,0.10
2023-03-17T14:17:17.733Z,0.20
2023-03-17T14:20:04.402Z,0.20
2023-03-17T14:22:33.130Z,0.20
2023-03-17T14:25:03.846Z,0.20
2023-03-17T14:27:35.279Z,0.10
2023-03-17T14:30:10.015Z,0.10
2023-03-17T14:32:38.548Z,0.10
2023-03-17T14:35:07.598Z,0.10
2023-03-17T14:37:39.356Z,0.10
2023-03-17T14:40:23.748Z,0.10
2023-03-17T14:42:52.037Z,0.20
2023-03-17T14:45:28.144Z,0.20
2023-03-17T14:47:57.018Z,0.10
2023-03-17T14:50:29.510Z,0.20
2023-03-17T14:52:59.729Z,0.10
2023-03-17T14:55:40.686Z,0.20
2023-03-17T14:58:11.593Z,0.20
2023-03-17T15:00:49.858Z,0.20
2023-03-17T15:03:21.294Z,0.20
2023-03-17T15:05:51.159Z,0.10
2023-03-17T15:08:42.851Z,0.20
2023-03-17T15:11:23.756Z,0.20
2023-03-17T15:13:56.949Z,0.10
2023-03-17T15:16:28.449Z,0.20
2023-03-17T15:19:08.282Z,0.20
2023-03-17T15:21:40.440Z,0.20
2023-03-17T15:24:26.125Z,0.10
2023-03-17T15:27:03.159Z,0.20
2023-03-17T15:29:31.646Z,0.10
2023-03-17T15:32:11.754Z,0.20
2023-03-17T15:34:40.001Z,0.20
2023-03-17T15:37:16.531Z,0.20
2023-03-17T15:39:45.187Z,0.20
2023-03-17T15:42:15.067Z,0.10
2023-03-17T15:44:43.421Z,0.20
2023-03-17T15:47:15.162Z,0.20
2023-03-17T15:49:43.882Z,0.20
2023-03-17T15:52:17.491Z,0.20
2023-03-17T15:54:46.243Z,0.30
2023-03-17T15:57:16.022Z,0.20
2023-03-17T15:59:45.033Z,0.20
2023-03-17T16:02:26.027Z,0.20
2023-03-17T16:04:55.142Z,0.20
2023-03-17T16:07:23.818Z,0.20
2023-03-17T16:09:52.324Z,0.20
2023-03-17T16:12:21.955Z,0.20
2023-03-17T16:14:50.497Z,0.10
2023-03-17T16:17:26.728Z,0.20
2023-03-17T16:19:56.025Z,0.13
2023-03-17T16:22:40.417Z,0.20
2023-03-17T16:25:21.475Z,0.20
2023-03-17T16:27:51.845Z,0.20
2023-03-17T16:30:22.146Z,0.20
2023-03-17T16:32:51.263Z,0.20
2023-03-17T16:35:21.944Z,0.30
2023-03-17T16:37:54.413Z,0.20
2023-03-17T16:40:25.496Z,0.20
2023-03-17T16:42:55.698Z,0.20
2023-03-17T16:45:29.035Z,0.20
2023-03-17T16:47:58.681Z,0.20
2023-03-17T16:50:28.941Z,0.20
2023-03-17T16:52:57.893Z,0.20
2023-03-17T16:55:28.392Z,0.30
2023-03-17T16:58:02.268Z,0.20
2023-03-17T17:00:32.082Z,0.20
2023-03-17T17:03:00.939Z,0.20
2023-03-17T17:05:32.001Z,0.20
2023-03-17T17:08:00.916Z,0.20
2023-03-17T17:10:32.547Z,0.20
2023-03-17T17:13:03.233Z,0.20
2023-03-17T17:15:35.325Z,0.20
2023-03-17T17:18:06.985Z,0.30
2023-03-17T17:20:37.794Z,0.30
2023-03-17T17:23:06.868Z,0.20
2023-03-17T17:25:35.843Z,0.20
2023-03-17T17:28:06.458Z,0.20
2023-03-17T17:30:35.671Z,0.30
2023-03-17T17:33:04.492Z,0.20
2023-03-17T17:35:34.300Z,0.20
2023-03-17T17:38:03.749Z,0.20
2023-03-17T17:40:35.110Z,0.30
2023-03-17T17:43:06.146Z,0.30
2023-03-17T17:45:36.282Z,0.20
2023-03-17T17:48:05.500Z,0.20
2023-03-17T17:50:37.558Z,0.20
2023-03-17T17:53:12.468Z,0.20
2023-03-17T17:55:42.262Z,0.20
2023-03-17T17:58:15.375Z,0.27
2023-03-17T18:00:44.588Z,0.20
2023-03-17T18:03:13.391Z,0.30
2023-03-17T18:05:42.169Z,0.30
2023-03-17T18:08:15.144Z,0.30
2023-03-17T18:10:43.790Z,0.30
2023-03-17T18:13:14.288Z,0.20
2023-03-17T18:15:43.258Z,0.20
2023-03-17T18:18:12.172Z,0.20
2023-03-17T18:20:40.627Z,0.10
2023-03-17T18:23:09.226Z,0.20
2023-03-17T18:25:37.710Z,0.20
2023-03-17T18:28:06.541Z,0.30
2023-03-17T18:30:37.492Z,0.20
2023-03-17T18:33:09.924Z,0.20
2023-03-17T18:35:39.726Z,0.20
2023-03-17T18:38:08.610Z,0.30
2023-03-17T18:40:37.774Z,0.30
2023-03-17T18:43:06.795Z,0.30
2023-03-17T18:45:36.581Z,0.30
2023-03-17T18:48:05.834Z,0.20
2023-03-17T18:50:34.879Z,0.20
2023-03-17T18:53:03.592Z,0.20
2023-03-17T18:55:32.148Z,0.20
2023-03-17T18:58:00.436Z,0.30
2023-03-17T19:00:29.678Z,0.20
2023-03-17T19:02:59.785Z,0.20
2023-03-17T19:05:28.371Z,0.20
2023-03-17T19:07:57.247Z,0.30
2023-03-17T19:10:26.213Z,0.30
2023-03-17T19:12:55.461Z,0.40
2023-03-17T19:15:26.739Z,0.20
2023-03-17T19:17:55.278Z,0.20
2023-03-17T19:20:25.035Z,0.30
2023-03-17T19:22:54.297Z,0.30
2023-03-17T19:25:23.560Z,0.20
2023-03-17T19:27:52.108Z,0.30
2023-03-17T19:30:21.133Z,0.20
2023-03-17T19:32:49.653Z,0.30
2023-03-17T19:35:18.830Z,0.30
2023-03-17T19:37:48.876Z,0.20
2023-03-17T19:40:17.938Z,0.20
2023-03-17T19:42:46.748Z,0.30
2023-03-17T19:45:15.675Z,0.20
2023-03-17T19:47:44.283Z,0.20
2023-03-17T19:50:13.668Z,0.27
2023-03-17T19:52:42.812Z,0.30
2023-03-17T19:55:13.431Z,0.30
2023-03-17T19:57:42.024Z,0.20
2023-03-17T20:00:13.098Z,0.30
2023-03-17T20:02:42.270Z,0.30
2023-03-17T20:05:11.301Z,0.30
2023-03-17T20:07:40.129Z,0.20
2023-03-17T20:10:09.706Z,0.30
2023-03-17T20:12:40.344Z,0.30
2023-03-17T20:15:12.480Z,0.27
2023-03-17T20:17:41.183Z,0.20
2023-03-17T20:20:11.847Z,0.20
2023-03-17T20:22:41.687Z,0.30
2023-03-17T20:25:10.938Z,0.30
2023-03-17T20:27:40.939Z,0.20
2023-03-17T20:30:12.457Z,0.20
2023-03-17T20:32:41.362Z,0.30
2023-03-17T20:35:10.662Z,0.30
2023-03-17T20:37:39.589Z,0.30
2023-03-17T20:40:10.860Z,0.30
2023-03-17T20:42:41.744Z,0.30
2023-03-17T20:45:10.681Z,0.30
2023-03-17T20:47:39.134Z,0.30
2023-03-17T20:50:08.854Z,0.20
2023-03-17T20:52:38.276Z,0.30
2023-03-17T20:55:08.498Z,0.30
2023-03-17T20:57:38.146Z,0.20
2023-03-17T21:00:10.516Z,0.30
2023-03-17T21:02:39.594Z,0.20
2023-03-17T21:05:09.111Z,0.30
2023-03-17T21:07:37.442Z,0.20
2023-03-17T21:10:06.260Z,0.20
2023-03-17T21:12:34.791Z,0.30
2023-03-17T21:15:03.766Z,0.20
2023-03-17T21:17:34.331Z,0.20
2023-03-17T21:20:03.311Z,0.30
2023-03-17T21:22:32.330Z,0.20
2023-03-17T21:25:01.093Z,0.30
2023-03-17T21:27:30.094Z,0.30
2023-03-17T21:29:58.623Z,0.30
2023-03-17T21:32:27.121Z,0.30
2023-03-17T21:34:57.097Z,0.20
2023-03-17T21:37:25.691Z,0.20
2023-03-17T21:39:54.355Z,0.20
2023-03-17T21:42:22.716Z,0.30
2023-03-17T21:44:52.200Z,0.30
2023-03-17T21:47:20.731Z,0.30
2023-03-17T21:49:49.102Z,0.20
2023-03-17T21:52:20.936Z,0.30
2023-03-17T21:54:49.381Z,0.30
2023-03-17T21:57:18.166Z,0.30
2023-03-17T21:59:47.549Z,0.30
2023-03-17T22:02:17.826Z,0.30
2023-03-17T22:04:46.973Z,0.30
2023-03-17T22:07:16.575Z,0.30
2023-03-17T22:09:46.367Z,0.30
2023-03-17T22:12:16.066Z,0.30
2023-03-17T22:14:44.539Z,0.30
2023-03-17T22:17:13.622Z,0.20
2023-03-17T22:19:44.042Z,0.30
2023-03-17T22:22:13.010Z,0.20
2023-03-17T22:24:41.788Z,0.30
2023-03-17T22:27:11.741Z,0.30
2023-03-17T22:29:40.413Z,0.40
2023-03-17T22:32:09.706Z,0.20
2023-03-17T22:34:38.764Z,0.30
2023-03-17T22:37:07.704Z,0.30
2023-03-17T22:39:36.304Z,0.30
2023-03-17T22:42:04.900Z,0.30
2023-03-17T22:44:34.755Z,0.30
2023-03-17T22:47:03.210Z,0.30
2023-03-17T22:49:32.045Z,0.30
2023-03-17T22:52:00.479Z,0.30
2023-03-17T22:54:29.008Z,0.40
2023-03-17T22:56:57.463Z,0.30
2023-03-17T22:59:25.884Z,0.30
2023-03-17T23:01:55.771Z,0.30
2023-03-17T23:04:24.665Z,0.30
2023-03-17T23:06:53.010Z,0.30
2023-03-17T23:09:21.878Z,0.30
2023-03-17T23:11:50.718Z,0.30
2023-03-17T23:14:19.136Z,0.30
2023-03-17T23:16:48.946Z,0.30
2023-03-17T23:19:19.247Z,0.30
2023-03-17T23:21:47.616Z,0.30
2023-03-17T23:24:16.049Z,0.30
2023-03-17T23:26:44.582Z,0.27
2023-03-17T23:29:13.370Z,0.20
2023-03-17T23:31:41.814Z,0.30
2023-03-17T23:34:10.771Z,0.30
2023-03-17T23:36:40.728Z,0.30
2023-03-17T23:39:09.854Z,0.30
2023-03-17T23:41:38.981Z,0.30
2023-03-17T23:44:07.659Z,0.30
2023-03-17T23:46:36.672Z,0.30
2023-03-17T23:49:07.254Z,0.30
2023-03-17T23:51:36.096Z,0.30
2023-03-17T23:54:07.755Z,0.30
2023-03-17T23:56:36.842Z,0.30
2023-03-17T23:59:07.489Z,0.30
